Cacuaco, Angola
Current Conditions -  °F | °C
As of 2:00 PM on Saturday 25 Oct 2014 (Local Time) from FNLU Reporting Station
Broken Clouds Broken Clouds  
Wind Chill: 84°   Ceiling: 2300
Heat Index: 91°   Visibility: 6mi
Dew Point: 73°   Wind: 13mph
Humidity: 70%   Direction: 260°W
Pressure: 29.83"   Gusts: NA
Location:  8.78°S, 13.37°E
Report Text: FNLU 251300Z 26011KT 9999 FEW018 BKN023 29/23 Q1010 NOSIG
Loading
Personal Weather Stations






























Interactive Weather Map
Tropical Storm Tracking
New forecast layout! Learn more

10-Day Weather Forecast

Advertisements
Track Severe Weather on mobile